createdAt,value
2018-09-11T00:01:41.580Z,19.33
2018-09-11T00:04:09.603Z,19.33
2018-09-11T00:06:37.616Z,19.30
2018-09-11T00:09:08.697Z,19.25
2018-09-11T00:11:36.691Z,19.13
2018-09-11T00:14:04.776Z,19.07
2018-09-11T00:16:32.784Z,19.03
2018-09-11T00:19:00.855Z,19.06
2018-09-11T00:21:28.918Z,18.91
2018-09-11T00:23:56.991Z,18.78
2018-09-11T00:26:25.015Z,18.86
2018-09-11T00:28:54.186Z,18.84
2018-09-11T00:31:22.288Z,18.74
2018-09-11T00:33:50.292Z,18.90
2018-09-11T00:36:18.312Z,18.88
2018-09-11T00:38:46.344Z,18.80
2018-09-11T00:41:14.348Z,18.73
2018-09-11T00:43:42.573Z,18.61
2018-09-11T00:46:10.629Z,18.59
2018-09-11T00:48:38.631Z,18.60
2018-09-11T00:51:06.729Z,18.79
2018-09-11T00:53:34.777Z,18.64
2018-09-11T00:56:02.828Z,18.70
2018-09-11T00:58:30.857Z,18.75
2018-09-11T01:00:58.876Z,18.70
2018-09-11T01:03:26.892Z,18.68
2018-09-11T01:05:54.944Z,18.73
2018-09-11T01:08:22.980Z,18.63
2018-09-11T01:10:51.006Z,18.60
2018-09-11T01:13:19.010Z,18.59
2018-09-11T01:15:47.045Z,18.58
2018-09-11T01:18:15.068Z,18.69
2018-09-11T01:20:43.232Z,18.69
2018-09-11T01:23:11.217Z,18.71
2018-09-11T01:25:39.259Z,18.77
2018-09-11T01:28:07.345Z,18.78
2018-09-11T01:30:35.383Z,18.90
2018-09-11T01:33:03.418Z,18.81
2018-09-11T01:35:31.431Z,18.84
2018-09-11T01:37:59.505Z,18.85
2018-09-11T01:40:27.640Z,18.88
2018-09-11T01:42:55.645Z,18.88
2018-09-11T01:45:23.660Z,18.76
2018-09-11T01:47:51.671Z,18.86
2018-09-11T01:50:19.687Z,18.80
2018-09-11T01:52:47.748Z,18.70
2018-09-11T01:55:15.751Z,18.45
2018-09-11T01:57:43.755Z,18.46
2018-09-11T02:00:16.435Z,18.46
2018-09-11T02:02:44.589Z,18.47
2018-09-11T02:05:12.612Z,18.56
2018-09-11T02:07:41.549Z,18.23
2018-09-11T02:10:09.584Z,18.41
2018-09-11T02:12:37.650Z,18.34
2018-09-11T02:15:05.992Z,18.37
2018-09-11T02:17:34.036Z,18.22
2018-09-11T02:20:02.076Z,18.25
2018-09-11T02:22:30.129Z,18.32
2018-09-11T02:24:58.286Z,18.16
2018-09-11T02:27:26.320Z,18.19
2018-09-11T02:29:54.324Z,18.21
2018-09-11T02:32:22.467Z,18.36
2018-09-11T02:34:50.501Z,18.36
2018-09-11T02:37:18.520Z,18.35
2018-09-11T02:39:46.560Z,18.46
2018-09-11T02:42:14.717Z,18.37
2018-09-11T02:44:42.904Z,18.46
2018-09-11T02:47:11.347Z,18.40
2018-09-11T02:49:39.417Z,18.45
2018-09-11T02:52:07.487Z,18.38
2018-09-11T02:54:35.589Z,18.38
2018-09-11T02:57:03.700Z,18.44
2018-09-11T02:59:31.835Z,18.41
2018-09-11T03:01:59.825Z,18.32
2018-09-11T03:04:27.835Z,18.40
2018-09-11T03:06:55.990Z,18.23
2018-09-11T03:09:24.089Z,18.33
2018-09-11T03:11:52.105Z,18.31
2018-09-11T03:14:20.160Z,18.35
2018-09-11T03:16:48.105Z,18.31
2018-09-11T03:19:16.140Z,18.37
2018-09-11T03:21:44.237Z,18.18
2018-09-11T03:24:12.288Z,18.27
2018-09-11T03:26:40.351Z,18.29
2018-09-11T03:29:08.432Z,18.16
2018-09-11T03:31:36.571Z,18.16
2018-09-11T03:34:04.592Z,18.27
2018-09-11T03:36:32.624Z,18.17
2018-09-11T03:39:00.652Z,18.21
2018-09-11T03:41:28.753Z,18.30
2018-09-11T03:43:56.804Z,18.25
2018-09-11T03:46:24.816Z,18.31
2018-09-11T03:48:52.824Z,18.11
2018-09-11T03:51:20.904Z,18.04
2018-09-11T03:53:48.983Z,17.98
2018-09-11T03:56:16.960Z,18.00
2018-09-11T03:58:45.091Z,17.93
2018-09-11T04:01:13.097Z,18.00
2018-09-11T04:03:41.201Z,18.07
2018-09-11T04:06:09.190Z,18.31
2018-09-11T04:08:37.209Z,18.23
2018-09-11T04:11:05.349Z,18.15
2018-09-11T04:13:33.399Z,18.09
2018-09-11T04:16:01.443Z,18.00
2018-09-11T04:18:29.442Z,17.87
2018-09-11T04:20:57.493Z,17.95
2018-09-11T04:23:25.528Z,17.78
2018-09-11T04:25:53.538Z,17.89
2018-09-11T04:28:21.545Z,17.72
2018-09-11T04:30:49.564Z,17.82
2018-09-11T04:33:17.875Z,17.97
2018-09-11T04:35:45.914Z,17.85
2018-09-11T04:38:13.901Z,17.79
2018-09-11T04:40:41.905Z,17.74
2018-09-11T04:43:09.956Z,17.85
2018-09-11T04:45:37.949Z,17.73
2018-09-11T04:48:06.005Z,17.67
2018-09-11T04:50:34.093Z,17.51
2018-09-11T04:53:02.121Z,17.52
2018-09-11T04:55:30.133Z,17.38
2018-09-11T04:57:58.150Z,17.44
2018-09-11T05:00:27.250Z,17.55
2018-09-11T05:02:55.356Z,17.55
2018-09-11T05:05:23.514Z,17.66
2018-09-11T05:07:51.553Z,17.50
2018-09-11T05:10:19.576Z,17.51
2018-09-11T05:12:47.577Z,17.64
2018-09-11T05:15:15.577Z,17.72
2018-09-11T05:17:43.581Z,17.60
2018-09-11T05:20:11.577Z,17.70
2018-09-11T05:22:39.633Z,17.57
2018-09-11T05:25:07.664Z,17.41
2018-09-11T05:27:35.728Z,17.57
2018-09-11T05:30:05.513Z,17.50
2018-09-11T05:32:33.549Z,17.51
2018-09-11T05:35:01.594Z,17.48
2018-09-11T05:37:29.645Z,17.61
2018-09-11T05:39:57.747Z,17.66
2018-09-11T05:42:26.021Z,17.65
2018-09-11T05:44:54.069Z,17.64
2018-09-11T05:47:22.091Z,17.60
2018-09-11T05:49:50.120Z,17.65
2018-09-11T05:52:18.169Z,17.77
2018-09-11T05:54:46.240Z,17.67
2018-09-11T05:57:14.297Z,17.65
2018-09-11T05:59:42.413Z,17.82
2018-09-11T06:02:10.426Z,17.83
2018-09-11T06:04:38.420Z,17.73
2018-09-11T06:07:06.527Z,17.80
2018-09-11T06:09:34.561Z,17.89
2018-09-11T06:12:02.689Z,17.85
2018-09-11T06:14:30.726Z,18.12
2018-09-11T06:16:58.845Z,18.04
2018-09-11T06:19:26.851Z,18.28
2018-09-11T06:21:54.852Z,18.12
2018-09-11T06:24:22.873Z,18.16
2018-09-11T06:26:50.997Z,18.25
2018-09-11T06:29:19.158Z,18.26
2018-09-11T06:31:47.043Z,18.28
2018-09-11T06:34:15.108Z,18.50
2018-09-11T06:36:43.120Z,18.73
2018-09-11T06:39:11.799Z,18.90
2018-09-11T06:41:40.056Z,18.98
2018-09-11T06:44:08.113Z,19.05
2018-09-11T06:46:36.134Z,18.85
2018-09-11T06:49:04.677Z,18.85
2018-09-11T06:51:32.906Z,18.78
2018-09-11T06:54:01.404Z,18.72
2018-09-11T06:56:29.559Z,19.31
2018-09-11T06:58:57.680Z,20.54
2018-09-11T07:01:25.897Z,21.06
2018-09-11T07:03:53.923Z,21.85
2018-09-11T07:06:22.138Z,22.56
2018-09-11T07:08:50.232Z,22.89
2018-09-11T07:11:18.360Z,23.31
2018-09-11T07:13:46.421Z,22.87
2018-09-11T07:16:14.439Z,22.63
2018-09-11T07:18:42.456Z,22.73
2018-09-11T07:21:10.531Z,23.32
2018-09-11T07:23:38.517Z,23.14
2018-09-11T07:26:06.717Z,22.75
2018-09-11T07:28:34.816Z,22.30
2018-09-11T07:31:02.843Z,22.08
2018-09-11T07:33:30.830Z,21.50
2018-09-11T07:35:58.877Z,21.49
2018-09-11T07:38:26.904Z,21.28
2018-09-11T07:40:54.913Z,21.11
2018-09-11T07:43:22.924Z,21.39
2018-09-11T07:45:51.089Z,22.02
2018-09-11T07:48:19.177Z,22.52
2018-09-11T07:50:47.217Z,22.80
2018-09-11T07:53:15.248Z,23.13
2018-09-11T07:55:43.340Z,23.12
2018-09-11T07:58:11.412Z,23.38
2018-09-11T08:00:39.413Z,23.65
2018-09-11T08:03:07.671Z,24.20
2018-09-11T08:05:35.673Z,25.11
2018-09-11T08:08:03.721Z,25.03
2018-09-11T08:10:31.772Z,25.04
2018-09-11T08:12:59.844Z,25.73
2018-09-11T08:15:28.123Z,26.40
2018-09-11T08:17:56.216Z,26.69
2018-09-11T08:20:24.252Z,27.80
2018-09-11T08:22:52.285Z,28.70
2018-09-11T08:25:20.335Z,29.42
2018-09-11T08:27:48.363Z,30.58
2018-09-11T08:30:16.501Z,29.83
2018-09-11T08:32:44.590Z,29.44
2018-09-11T08:35:12.631Z,29.40
2018-09-11T08:37:40.661Z,29.79
2018-09-11T08:40:08.702Z,30.51
2018-09-11T08:42:36.721Z,30.83
2018-09-11T08:45:04.921Z,31.24
2018-09-11T08:47:33.019Z,30.52
2018-09-11T08:50:01.072Z,30.22
2018-09-11T08:52:29.146Z,29.44
2018-09-11T08:54:57.188Z,28.52
2018-09-11T08:57:25.216Z,27.41
2018-09-11T08:59:53.390Z,27.08
2018-09-11T09:02:21.441Z,27.42
2018-09-11T09:04:49.616Z,26.72
2018-09-11T09:07:17.625Z,26.92
2018-09-11T09:09:45.793Z,26.60
2018-09-11T09:12:13.796Z,26.10
2018-09-11T09:14:41.796Z,26.31
2018-09-11T09:17:09.796Z,26.30
2018-09-11T09:19:37.921Z,26.31
2018-09-11T09:22:05.977Z,26.25
2018-09-11T09:24:34.096Z,26.09
2018-09-11T09:27:02.299Z,25.92
2018-09-11T09:29:30.368Z,26.16
2018-09-11T09:31:58.498Z,26.57
2018-09-11T09:34:26.634Z,26.53
2018-09-11T09:36:54.717Z,26.37
2018-09-11T09:39:22.703Z,26.39
2018-09-11T09:41:50.769Z,26.16
2018-09-11T09:44:18.818Z,25.93
2018-09-11T09:46:46.910Z,25.90
2018-09-11T09:49:15.277Z,25.46
2018-09-11T09:51:43.343Z,25.75
2018-09-11T09:54:11.373Z,25.97
2018-09-11T09:56:39.628Z,25.87
2018-09-11T09:59:07.689Z,25.52
2018-09-11T10:01:41.193Z,25.35
2018-09-11T10:04:09.330Z,25.29
2018-09-11T10:06:37.388Z,24.94
2018-09-11T10:09:07.772Z,24.95
2018-09-11T10:11:35.886Z,25.25
2018-09-11T10:14:03.855Z,25.34
2018-09-11T10:16:31.864Z,25.52
2018-09-11T10:18:59.988Z,25.70
2018-09-11T10:21:28.008Z,25.29
2018-09-11T10:23:56.106Z,25.16
2018-09-11T10:26:24.302Z,25.29
2018-09-11T10:28:52.473Z,25.30
2018-09-11T10:31:20.505Z,25.30
2018-09-11T10:33:48.705Z,25.45
2018-09-11T10:36:16.810Z,25.69
2018-09-11T10:38:44.916Z,26.04
2018-09-11T10:41:13.026Z,26.28
2018-09-11T10:43:41.327Z,26.21
2018-09-11T10:46:09.304Z,26.26
2018-09-11T10:48:37.431Z,26.29
2018-09-11T10:51:05.420Z,26.43
2018-09-11T10:53:33.473Z,26.34
2018-09-11T10:56:01.538Z,26.11
2018-09-11T10:58:29.580Z,25.91
2018-09-11T11:00:57.640Z,25.83
2018-09-11T11:03:26.480Z,26.05
2018-09-11T11:05:54.744Z,26.03
2018-09-11T11:08:22.900Z,26.32
2018-09-11T11:10:51.039Z,26.47
2018-09-11T11:13:19.062Z,26.39
2018-09-11T11:15:47.117Z,26.36
2018-09-11T11:18:15.168Z,25.99
2018-09-11T11:20:43.209Z,26.15
2018-09-11T11:23:11.233Z,26.42
2018-09-11T11:25:39.263Z,26.40
2018-09-11T11:28:07.291Z,26.68
2018-09-11T11:30:35.344Z,26.88
2018-09-11T11:33:03.574Z,26.75
2018-09-11T11:35:31.569Z,26.87
2018-09-11T11:37:59.655Z,26.78
2018-09-11T11:40:27.691Z,26.88
2018-09-11T11:42:55.773Z,27.31
2018-09-11T11:45:23.825Z,27.15
2018-09-11T11:47:51.850Z,27.17
2018-09-11T11:50:19.913Z,27.05
2018-09-11T11:52:47.993Z,26.95
2018-09-11T11:55:16.169Z,27.04
2018-09-11T11:57:44.097Z,27.13
2018-09-11T12:00:12.174Z,27.07
2018-09-11T12:02:40.266Z,26.91
2018-09-11T12:05:08.332Z,26.95
2018-09-11T12:07:36.421Z,27.26
2018-09-11T12:10:04.457Z,27.55
2018-09-11T12:12:32.564Z,27.24
2018-09-11T12:15:00.608Z,26.96
2018-09-11T12:17:28.772Z,27.13
2018-09-11T12:19:56.852Z,27.39
2018-09-11T12:22:24.925Z,27.54
2018-09-11T12:24:53.030Z,27.58
2018-09-11T12:27:21.087Z,27.61
2018-09-11T12:29:49.221Z,27.77
2018-09-11T12:32:17.309Z,27.46
2018-09-11T12:34:45.336Z,27.50
2018-09-11T12:37:13.410Z,27.80
2018-09-11T12:39:41.537Z,28.15
2018-09-11T12:42:10.000Z,28.38
2018-09-11T12:44:38.047Z,28.09
2018-09-11T12:47:06.927Z,27.72
2018-09-11T12:49:34.784Z,27.76
2018-09-11T12:52:02.785Z,27.61
2018-09-11T12:54:30.809Z,27.71
2018-09-11T12:56:58.826Z,27.72
2018-09-11T12:59:26.873Z,27.98
2018-09-11T13:01:54.867Z,28.02
2018-09-11T13:04:22.970Z,28.36
2018-09-11T13:06:50.998Z,28.30
2018-09-11T13:09:19.058Z,28.18
2018-09-11T13:11:47.240Z,27.92
2018-09-11T13:14:15.307Z,27.66
2018-09-11T13:16:43.303Z,27.54
2018-09-11T13:19:11.308Z,27.21
2018-09-11T13:21:39.314Z,27.38
2018-09-11T13:24:07.344Z,27.14
2018-09-11T13:26:35.377Z,27.22
2018-09-11T13:29:03.460Z,27.48
2018-09-11T13:31:31.513Z,27.66
2018-09-11T13:33:59.770Z,27.74
2018-09-11T13:36:27.833Z,27.70
2018-09-11T13:38:56.025Z,27.50
2018-09-11T13:41:24.090Z,27.44
2018-09-11T13:43:52.108Z,27.43
2018-09-11T13:46:20.251Z,27.41
2018-09-11T13:48:48.261Z,27.64
2018-09-11T13:51:16.420Z,27.67
2018-09-11T13:53:44.668Z,27.66
2018-09-11T13:56:12.925Z,27.50
2018-09-11T13:58:41.305Z,27.47
2018-09-11T14:01:09.595Z,27.46
2018-09-11T14:03:38.016Z,27.34
2018-09-11T14:06:06.322Z,27.10
2018-09-11T14:08:34.632Z,26.84
2018-09-11T14:11:03.036Z,26.80
2018-09-11T14:13:31.287Z,26.96
2018-09-11T14:15:59.582Z,27.14
2018-09-11T14:18:27.701Z,27.53
2018-09-11T14:20:55.875Z,27.95
2018-09-11T14:23:23.961Z,28.12
2018-09-11T14:25:52.188Z,28.42
2018-09-11T14:28:20.360Z,28.56
2018-09-11T14:30:48.384Z,28.65
2018-09-11T14:33:16.442Z,28.54
2018-09-11T14:35:44.550Z,28.28
2018-09-11T14:38:12.670Z,28.08
2018-09-11T14:40:40.728Z,27.99
2018-09-11T14:43:08.728Z,27.66
2018-09-11T14:45:36.860Z,27.39
2018-09-11T14:48:05.038Z,27.24
2018-09-11T14:50:33.061Z,27.10
2018-09-11T14:53:01.137Z,27.03
2018-09-11T14:55:29.253Z,26.97
2018-09-11T14:57:57.282Z,26.76
2018-09-11T15:00:25.480Z,26.70
2018-09-11T15:02:53.761Z,26.28
2018-09-11T15:05:21.785Z,26.40
2018-09-11T15:07:49.860Z,26.44
2018-09-11T15:10:17.961Z,26.38
2018-09-11T15:12:46.057Z,26.34
2018-09-11T15:15:15.225Z,26.17
2018-09-11T15:17:43.192Z,26.18
2018-09-11T15:20:11.279Z,26.17
2018-09-11T15:22:39.424Z,26.08
2018-09-11T15:25:07.510Z,26.07
2018-09-11T15:27:35.601Z,26.09
2018-09-11T15:30:04.954Z,26.18
2018-09-11T15:32:32.940Z,26.17
2018-09-11T15:35:00.947Z,26.15
2018-09-11T15:37:29.028Z,26.12
2018-09-11T15:39:57.073Z,26.23
2018-09-11T15:42:25.086Z,26.20
2018-09-11T15:44:53.089Z,26.23
2018-09-11T15:47:21.145Z,26.21
2018-09-11T15:49:49.189Z,26.33
2018-09-11T15:52:17.312Z,26.28
2018-09-11T15:54:45.306Z,26.22
2018-09-11T15:57:13.329Z,25.88
2018-09-11T15:59:41.369Z,25.91
2018-09-11T16:02:09.395Z,25.84
2018-09-11T16:04:37.404Z,25.78
2018-09-11T16:07:05.438Z,25.73
2018-09-11T16:09:33.477Z,25.87
2018-09-11T16:12:01.497Z,25.62
2018-09-11T16:14:29.529Z,25.64
2018-09-11T16:16:57.637Z,25.71
2018-09-11T16:19:25.678Z,25.74
2018-09-11T16:21:53.705Z,25.60
2018-09-11T16:24:21.722Z,25.59
2018-09-11T16:26:49.734Z,25.83
2018-09-11T16:29:17.768Z,25.66
2018-09-11T16:31:45.780Z,25.54
2018-09-11T16:34:14.061Z,25.43
2018-09-11T16:36:42.150Z,25.45
2018-09-11T16:39:11.957Z,25.26
2018-09-11T16:41:40.136Z,25.21
2018-09-11T16:44:08.180Z,25.26
2018-09-11T16:46:36.510Z,25.30
2018-09-11T16:49:04.548Z,25.31
2018-09-11T16:51:32.669Z,25.20
2018-09-11T16:54:00.691Z,25.18
2018-09-11T16:56:28.769Z,25.15
2018-09-11T16:58:56.889Z,25.14
2018-09-11T17:01:24.881Z,25.30
2018-09-11T17:03:52.946Z,25.25
2018-09-11T17:06:20.964Z,25.07
2018-09-11T17:08:50.056Z,25.00
2018-09-11T17:11:18.091Z,24.94
2018-09-11T17:13:46.163Z,25.02
2018-09-11T17:16:14.172Z,25.15
2018-09-11T17:18:42.233Z,25.11
2018-09-11T17:21:10.305Z,25.08
2018-09-11T17:23:38.385Z,25.04
2018-09-11T17:26:06.401Z,24.85
2018-09-11T17:28:34.501Z,24.82
2018-09-11T17:31:03.034Z,24.92
2018-09-11T17:33:31.244Z,24.70
2018-09-11T17:35:59.437Z,24.74
2018-09-11T17:38:27.729Z,24.80
2018-09-11T17:40:55.825Z,24.66
2018-09-11T17:43:24.088Z,24.52
2018-09-11T17:45:52.492Z,24.55
2018-09-11T17:48:20.937Z,24.55
2018-09-11T17:50:49.134Z,24.49
2018-09-11T17:53:17.257Z,24.48
2018-09-11T17:55:45.416Z,24.37
2018-09-11T17:58:13.469Z,24.38
2018-09-11T18:00:42.120Z,24.39
2018-09-11T18:03:10.183Z,24.44
2018-09-11T18:05:38.343Z,24.36
2018-09-11T18:08:06.549Z,24.40
2018-09-11T18:10:34.645Z,24.32
2018-09-11T18:13:02.681Z,24.35
2018-09-11T18:15:30.756Z,24.25
2018-09-11T18:17:58.836Z,24.29
2018-09-11T18:20:26.840Z,24.41
2018-09-11T18:22:56.030Z,24.48
2018-09-11T18:25:24.142Z,24.27
2018-09-11T18:27:52.181Z,24.08
2018-09-11T18:30:20.257Z,24.20
2018-09-11T18:32:48.272Z,24.25
2018-09-11T18:35:16.331Z,24.05
2018-09-11T18:37:44.381Z,24.20
2018-09-11T18:40:12.449Z,24.41
2018-09-11T18:42:40.478Z,24.24
2018-09-11T18:45:08.552Z,24.30
2018-09-11T18:47:36.694Z,24.28
2018-09-11T18:50:04.819Z,24.23
2018-09-11T18:52:32.879Z,24.25
2018-09-11T18:55:01.049Z,24.41
2018-09-11T18:57:29.091Z,24.25
2018-09-11T18:59:57.212Z,24.20
2018-09-11T19:02:25.288Z,24.23
2018-09-11T19:04:54.329Z,24.30
2018-09-11T19:07:22.425Z,24.17
2018-09-11T19:09:51.457Z,24.41
2018-09-11T19:12:19.477Z,24.38
2018-09-11T19:14:47.675Z,24.25
2018-09-11T19:17:15.887Z,24.38
2018-09-11T19:19:43.991Z,24.24
2018-09-11T19:22:12.135Z,24.29
2018-09-11T19:24:40.300Z,24.03
2018-09-11T19:27:09.400Z,24.18
2018-09-11T19:29:37.560Z,23.98
2018-09-11T19:32:05.569Z,24.11
2018-09-11T19:34:33.708Z,24.10
2018-09-11T19:37:01.861Z,24.33
2018-09-11T19:39:29.909Z,24.05
2018-09-11T19:41:57.969Z,24.06
2018-09-11T19:44:26.107Z,23.89
2018-09-11T19:46:54.249Z,23.78
2018-09-11T19:49:22.333Z,23.67
2018-09-11T19:51:50.346Z,23.72
2018-09-11T19:54:18.408Z,23.84
2018-09-11T19:56:46.472Z,23.85
2018-09-11T19:59:14.712Z,23.87
2018-09-11T20:01:42.736Z,23.87
2018-09-11T20:04:10.803Z,23.93
2018-09-11T20:06:38.884Z,23.66
2018-09-11T20:09:09.548Z,23.67
2018-09-11T20:11:37.682Z,23.50
2018-09-11T20:14:06.281Z,23.68
2018-09-11T20:16:34.583Z,23.61
2018-09-11T20:19:02.820Z,23.77
2018-09-11T20:21:30.864Z,23.71
2018-09-11T20:23:59.048Z,23.78
2018-09-11T20:26:27.133Z,23.41
2018-09-11T20:28:55.439Z,23.31
2018-09-11T20:31:23.557Z,23.57
2018-09-11T20:33:51.978Z,23.50
2018-09-11T20:36:20.232Z,23.53
2018-09-11T20:38:48.261Z,23.29
2018-09-11T20:41:16.346Z,23.46
2018-09-11T20:43:44.453Z,23.44
2018-09-11T20:46:12.456Z,23.40
2018-09-11T20:48:40.541Z,23.35
2018-09-11T20:51:09.003Z,23.31
2018-09-11T20:53:37.305Z,23.49
2018-09-11T20:56:05.383Z,23.40
2018-09-11T20:58:33.468Z,23.08
2018-09-11T21:01:01.656Z,23.30
2018-09-11T21:03:29.672Z,23.29
2018-09-11T21:05:57.745Z,23.29
2018-09-11T21:08:25.880Z,23.36
2018-09-11T21:10:54.071Z,23.33
2018-09-11T21:13:22.164Z,23.07
2018-09-11T21:15:50.420Z,22.86
2018-09-11T21:18:19.626Z,23.01
2018-09-11T21:20:47.660Z,22.97
2018-09-11T21:23:15.931Z,22.88
2018-09-11T21:25:44.080Z,22.89
2018-09-11T21:28:12.190Z,22.97
2018-09-11T21:30:40.258Z,22.94
2018-09-11T21:33:08.298Z,22.89
2018-09-11T21:35:36.373Z,22.94
2018-09-11T21:38:04.408Z,23.03
2018-09-11T21:40:32.483Z,22.92
2018-09-11T21:43:00.513Z,23.03
2018-09-11T21:45:28.569Z,22.96
2018-09-11T21:47:56.589Z,22.80
2018-09-11T21:50:24.581Z,22.93
2018-09-11T21:52:52.668Z,22.92
2018-09-11T21:55:20.701Z,23.04
2018-09-11T21:57:48.728Z,22.89
2018-09-11T22:00:16.901Z,23.09
2018-09-11T22:02:44.941Z,23.09
2018-09-11T22:05:12.984Z,23.24
2018-09-11T22:07:41.016Z,23.20
2018-09-11T22:10:10.003Z,22.92
2018-09-11T22:12:38.013Z,23.15
2018-09-11T22:15:06.339Z,23.21
2018-09-11T22:17:34.544Z,23.09
2018-09-11T22:20:02.612Z,23.01
2018-09-11T22:22:30.678Z,23.15
2018-09-11T22:24:58.819Z,23.33
2018-09-11T22:27:26.816Z,23.33
2018-09-11T22:29:54.937Z,23.38
2018-09-11T22:32:23.065Z,23.43
2018-09-11T22:34:51.088Z,23.24
2018-09-11T22:37:19.206Z,23.39
2018-09-11T22:39:47.220Z,23.53
2018-09-11T22:42:15.303Z,23.39
2018-09-11T22:44:43.313Z,23.35
2018-09-11T22:47:11.369Z,23.40
2018-09-11T22:49:39.384Z,23.28
2018-09-11T22:52:07.541Z,23.38
2018-09-11T22:54:35.565Z,23.39
2018-09-11T22:57:03.612Z,23.10
2018-09-11T22:59:31.729Z,23.32
2018-09-11T23:01:59.753Z,23.18
2018-09-11T23:04:28.003Z,23.18
2018-09-11T23:06:56.013Z,23.07
2018-09-11T23:09:24.061Z,23.11
2018-09-11T23:11:52.140Z,22.97
2018-09-11T23:14:20.249Z,22.94
2018-09-11T23:16:48.368Z,22.91
2018-09-11T23:19:16.548Z,22.90
2018-09-11T23:21:44.553Z,22.94
2018-09-11T23:24:12.632Z,22.86
2018-09-11T23:26:40.647Z,22.94
2018-09-11T23:29:08.680Z,22.81
2018-09-11T23:31:36.721Z,22.72
2018-09-11T23:34:04.749Z,22.75
2018-09-11T23:36:32.749Z,22.63
2018-09-11T23:39:00.893Z,22.61
2018-09-11T23:41:28.941Z,22.63
2018-09-11T23:43:57.064Z,22.72
2018-09-11T23:46:25.089Z,22.75
2018-09-11T23:48:53.117Z,22.74
2018-09-11T23:51:21.218Z,22.73
2018-09-11T23:53:49.226Z,22.66
2018-09-11T23:56:17.263Z,22.69
2018-09-11T23:58:45.324Z,22.79
